Time;durP1;ratioP1;P1;durP2;ratioP2;P2;SDS_P1;SDS_P2;PMS_P1;PMS_P2;Temp;Humidity;BMP_temperature;BMP_pressure;BME280_temperature;BME280_humidity;BME280_pressure;Samples;Min_cycle;Max_cycle;Signal;HPM_P1;HPM_P2
2022/05/09 00:01:21;;;;;;;11.27;6.47;;;;;;;14.55;54.14;99320.00;5050678;28;20036;-77
2022/05/09 00:03:46;;;;;;;16.20;6.68;;;;;;;14.45;54.44;99321.00;5049851;28;20029;-76
2022/05/09 00:06:13;;;;;;;11.00;6.70;;;;;;;14.41;54.69;99325.47;5050455;28;20033;-75
2022/05/09 00:08:40;;;;;;;8.50;6.22;;;;;;;14.36;54.82;99320.84;5050590;28;20054;-75
2022/05/09 00:11:06;;;;;;;9.82;6.55;;;;;;;14.31;54.73;99318.16;5050544;28;20561;-75
2022/05/09 00:13:31;;;;;;;10.73;6.55;;;;;;;14.27;55.15;99322.63;5050012;28;20100;-75
2022/05/09 00:15:56;;;;;;;8.70;5.95;;;;;;;14.24;55.54;99320.50;5050590;28;20108;-76
2022/05/09 00:18:22;;;;;;;10.02;6.43;;;;;;;14.23;55.42;99316.91;5050629;28;20473;-76
2022/05/09 00:20:47;;;;;;;8.93;6.20;;;;;;;14.21;55.61;99316.38;5050357;28;20025;-75
2022/05/09 00:23:13;;;;;;;8.65;6.35;;;;;;;14.19;55.82;99310.34;5050144;28;20458;-75
2022/05/09 00:25:38;;;;;;;8.68;6.88;;;;;;;14.19;55.66;99318.63;5050400;28;20035;-75
2022/05/09 00:28:04;;;;;;;10.27;6.35;;;;;;;14.17;55.90;99314.53;5050608;28;20032;-76
2022/05/09 00:30:29;;;;;;;11.02;6.35;;;;;;;14.12;56.72;99320.94;5050493;28;20382;-76
2022/05/09 00:32:55;;;;;;;10.35;6.45;;;;;;;14.08;56.22;99317.13;5049747;28;20420;-76
2022/05/09 00:35:21;;;;;;;10.05;6.10;;;;;;;14.08;56.15;99322.66;5050159;28;20052;-76
2022/05/09 00:37:46;;;;;;;8.68;5.68;;;;;;;14.09;56.36;99316.84;5050573;28;20486;-76
2022/05/09 00:40:14;;;;;;;10.00;6.60;;;;;;;14.10;56.43;99323.16;5049311;28;20017;-76
2022/05/09 00:43:25;;;;;;;11.93;6.63;;;;;;;14.11;56.16;99316.53;5048546;28;20420;-76
2022/05/09 00:45:53;;;;;;;10.55;6.97;;;;;;;14.12;56.88;99323.69;5050015;28;20056;-76
2022/05/09 00:48:19;;;;;;;8.70;6.82;;;;;;;14.10;56.79;99323.16;5050501;28;20485;-76
2022/05/09 00:50:44;;;;;;;10.73;6.38;;;;;;;14.08;56.89;99323.47;5050075;28;20033;-76
2022/05/09 00:53:11;;;;;;;10.02;6.60;;;;;;;14.10;56.92;99326.75;5049695;28;20108;-76
2022/05/09 00:55:51;;;;;;;10.02;6.30;;;;;;;14.13;56.98;99339.13;5050143;28;20061;-76
2022/05/09 00:58:23;;;;;;;9.63;6.32;;;;;;;14.14;57.41;99330.56;5050306;28;20545;-76
2022/05/09 01:00:50;;;;;;;9.27;6.07;;;;;;;14.12;57.03;99340.25;5051547;28;20067;-76
2022/05/09 01:03:27;;;;;;;10.52;6.88;;;;;;;14.10;56.91;99335.03;5053656;28;20028;-76
2022/05/09 01:05:52;;;;;;;10.00;7.00;;;;;;;14.06;57.26;99331.22;5054030;28;20025;-76
2022/05/09 01:08:24;;;;;;;9.82;6.50;;;;;;;14.05;57.80;99337.06;5052670;28;20087;-76
2022/05/09 01:10:51;;;;;;;10.43;7.30;;;;;;;14.02;57.73;99329.38;5053818;28;20493;-77
2022/05/09 01:13:20;;;;;;;10.90;6.93;;;;;;;13.98;57.79;99338.25;5053620;28;20029;-77
2022/05/09 01:15:48;;;;;;;9.68;6.10;;;;;;;13.95;57.93;99338.84;5053739;28;20032;-77
2022/05/09 01:18:16;;;;;;;10.10;6.22;;;;;;;13.93;57.83;99330.03;5053940;28;20043;-76
2022/05/09 01:20:43;;;;;;;11.32;6.65;;;;;;;13.90;58.24;99336.16;5054047;28;20096;-77
2022/05/09 01:23:10;;;;;;;8.77;6.28;;;;;;;13.86;58.27;99335.09;5053552;28;20029;-76
2022/05/09 01:25:36;;;;;;;10.38;6.60;;;;;;;13.86;58.19;99340.63;5053818;28;20023;-76
2022/05/09 01:28:03;;;;;;;9.77;6.85;;;;;;;13.88;58.37;99335.63;5053721;28;20057;-77
2022/05/09 01:30:46;;;;;;;9.93;6.88;;;;;;;13.90;58.28;99340.84;5053573;28;20029;-77
2022/05/09 01:33:17;;;;;;;12.07;7.43;;;;;;;13.90;58.30;99344.41;5053286;28;20036;-76
2022/05/09 01:35:59;;;;;;;10.95;6.68;;;;;;;13.91;58.18;99342.47;5052075;28;20436;-77
2022/05/09 01:38:33;;;;;;;11.10;7.85;;;;;;;13.90;58.18;99340.84;5053635;28;20028;-76
2022/05/09 01:40:59;;;;;;;13.75;8.18;;;;;;;13.88;58.52;99349.41;5052225;28;20024;-77
2022/05/09 01:43:46;;;;;;;12.95;7.57;;;;;;;13.88;58.26;99343.06;5053435;28;20060;-77
2022/05/09 01:46:15;;;;;;;12.75;7.32;;;;;;;13.87;59.10;99355.22;5053442;28;20508;-76
2022/05/09 01:51:27;;;;;;;10.35;7.35;;;;;;;13.82;58.97;99345.91;5053839;28;20504;-76
2022/05/09 01:53:52;;;;;;;10.52;6.80;;;;;;;13.82;58.60;99343.16;5053645;28;20028;-76
2022/05/09 01:56:20;;;;;;;11.00;7.32;;;;;;;13.81;58.90;99341.50;5053317;28;20028;-76
2022/05/09 01:58:45;;;;;;;11.43;7.53;;;;;;;13.81;58.79;99349.78;5053016;28;20036;-76
2022/05/09 02:01:11;;;;;;;10.00;7.18;;;;;;;13.79;59.08;99353.94;5051869;28;20120;-76
2022/05/09 02:03:37;;;;;;;11.80;7.40;;;;;;;13.79;58.84;99356.69;5053084;28;20037;-76
2022/05/09 02:06:03;;;;;;;11.40;7.57;;;;;;;13.74;59.04;99345.72;5053171;28;20029;-76
2022/05/09 02:08:29;;;;;;;10.70;7.30;;;;;;;13.69;59.13;99352.16;5053085;28;20104;-76
2022/05/09 02:10:55;;;;;;;12.45;7.60;;;;;;;13.64;59.54;99349.44;5053544;28;20105;-76
2022/05/09 02:13:21;;;;;;;11.45;7.88;;;;;;;13.55;59.48;99346.53;5051285;28;20067;-76
2022/05/09 02:15:47;;;;;;;33.22;21.17;;;;;;;13.49;59.26;99347.69;5052347;28;20029;-77
2022/05/09 02:18:12;;;;;;;19.80;12.60;;;;;;;13.47;59.42;99349.94;5052769;28;20110;-76
2022/05/09 02:20:38;;;;;;;12.48;7.97;;;;;;;13.46;59.81;99357.34;5052602;28;20029;-76
2022/05/09 02:23:04;;;;;;;9.30;6.93;;;;;;;13.47;60.00;99356.25;5050719;28;20440;-76
2022/05/09 02:25:30;;;;;;;11.05;8.00;;;;;;;13.43;60.22;99354.38;5052406;28;20090;-73
2022/05/09 02:28:00;;;;;;;11.05;7.30;;;;;;;13.42;59.86;99352.75;5052133;28;20021;-72
2022/05/09 02:30:26;;;;;;;12.45;7.93;;;;;;;13.39;59.96;99354.94;5051932;28;20029;-73
2022/05/09 02:32:52;;;;;;;12.40;7.45;;;;;;;13.37;60.08;99361.88;5050620;28;20033;-73
2022/05/09 02:35:20;;;;;;;12.45;7.80;;;;;;;13.35;60.05;99362.13;5050538;28;20021;-75
2022/05/09 02:37:48;;;;;;;11.38;7.63;;;;;;;13.32;60.44;99361.91;5051682;28;20027;-75
2022/05/09 02:40:14;;;;;;;13.15;8.65;;;;;;;13.29;60.58;99366.06;5052031;28;20510;-75
2022/05/09 02:42:39;;;;;;;12.65;7.80;;;;;;;13.26;60.85;99374.91;5052124;28;20029;-76
2022/05/09 02:45:06;;;;;;;13.57;8.20;;;;;;;13.25;60.85;99370.50;5051536;28;20055;-76
2022/05/09 02:47:32;;;;;;;14.55;7.78;;;;;;;13.23;60.41;99373.56;5050406;28;20036;-76
2022/05/09 02:49:57;;;;;;;12.25;7.72;;;;;;;13.21;61.18;99369.47;5051176;28;20021;-75
2022/05/09 02:52:23;;;;;;;14.43;8.25;;;;;;;13.19;61.06;99363.44;5051562;28;20033;-76
2022/05/09 02:54:48;;;;;;;12.23;8.20;;;;;;;13.19;60.82;99369.75;5051223;28;20104;-76
2022/05/09 02:57:14;;;;;;;10.70;7.97;;;;;;;13.17;60.98;99368.41;5051134;28;20473;-76
2022/05/09 02:59:40;;;;;;;12.45;8.20;;;;;;;13.17;60.53;99369.22;5050214;28;20028;-76
2022/05/09 03:02:07;;;;;;;12.70;8.10;;;;;;;13.15;61.12;99365.13;5051836;28;20052;-76
2022/05/09 03:04:41;;;;;;;13.70;8.55;;;;;;;13.12;61.13;99369.28;5052127;28;20056;-76
2022/05/09 03:07:09;;;;;;;15.90;8.80;;;;;;;13.09;60.67;99372.59;5052081;28;20017;-76
2022/05/09 03:09:35;;;;;;;12.75;8.68;;;;;;;13.09;61.09;99373.44;5051929;28;20028;-76
2022/05/09 03:12:01;;;;;;;11.98;7.78;;;;;;;13.08;61.42;99379.22;5052229;28;20017;-76
2022/05/09 03:14:27;;;;;;;11.80;7.18;;;;;;;13.04;61.71;99384.50;5049941;28;20103;-76
2022/05/09 03:16:52;;;;;;;12.90;7.80;;;;;;;13.00;62.13;99390.88;5051469;28;20435;-76
2022/05/09 03:19:18;;;;;;;12.48;8.18;;;;;;;12.98;62.05;99388.41;5051321;28;20055;-76
2022/05/09 03:21:45;;;;;;;13.57;8.32;;;;;;;12.92;61.80;99400.56;5051860;28;20066;-76
2022/05/09 03:24:10;;;;;;;9.82;7.57;;;;;;;12.88;62.24;99399.50;5051519;28;20029;-76
2022/05/09 03:26:36;;;;;;;13.38;8.55;;;;;;;12.85;61.95;99402.84;5051507;28;20074;-76
2022/05/09 03:29:01;;;;;;;13.60;8.57;;;;;;;12.84;61.69;99406.72;5051685;28;20024;-76
2022/05/09 03:31:27;;;;;;;13.45;8.27;;;;;;;12.85;61.74;99411.94;5051558;28;20032;-76
2022/05/09 03:33:52;;;;;;;13.07;8.18;;;;;;;12.85;62.52;99411.94;5051639;28;20041;-76
2022/05/09 03:36:17;;;;;;;12.13;7.63;;;;;;;12.84;62.22;99402.03;5052485;28;20025;-77
2022/05/09 03:38:43;;;;;;;12.85;8.80;;;;;;;12.85;62.82;99409.19;5051735;28;20048;-76
2022/05/09 03:41:08;;;;;;;13.75;8.40;;;;;;;12.83;62.63;99414.16;5051669;28;20039;-77
2022/05/09 03:43:34;;;;;;;12.68;8.30;;;;;;;12.80;62.81;99415.56;5050053;28;20037;-77
2022/05/09 03:46:00;;;;;;;12.70;8.40;;;;;;;12.83;62.49;99413.34;5051327;28;20060;-77
2022/05/09 03:48:26;;;;;;;14.13;9.77;;;;;;;12.82;63.21;99418.00;5051510;28;20353;-77
2022/05/09 03:50:52;;;;;;;13.13;8.60;;;;;;;12.83;62.20;99424.34;5051638;28;20148;-76
2022/05/09 03:53:17;;;;;;;12.77;8.32;;;;;;;12.83;62.03;99421.59;5051223;28;20393;-76
2022/05/09 03:55:43;;;;;;;13.40;8.48;;;;;;;12.85;62.71;99420.19;5051321;28;20032;-77
2022/05/09 03:58:08;;;;;;;14.82;8.40;;;;;;;12.88;62.58;99425.13;5051494;28;20070;-76
2022/05/09 04:00:35;;;;;;;17.63;10.07;;;;;;;12.91;62.48;99423.72;5051337;28;20485;-77
2022/05/09 04:03:02;;;;;;;15.95;8.75;;;;;;;12.91;62.27;99415.44;5050842;28;20040;-77
2022/05/09 04:05:30;;;;;;;15.73;8.75;;;;;;;12.94;62.58;99423.13;5051274;28;20040;-77
2022/05/09 04:07:57;;;;;;;14.80;9.18;;;;;;;12.98;62.68;99423.41;5051115;28;20032;-77
2022/05/09 04:10:25;;;;;;;13.85;9.18;;;;;;;13.01;62.07;99425.56;5051036;28;20035;-76
2022/05/09 04:12:51;;;;;;;14.32;9.20;;;;;;;13.03;62.46;99428.88;5050809;28;20116;-77
2022/05/09 04:18:03;;;;;;;12.65;9.25;;;;;;;13.10;62.13;99419.16;5051302;28;20036;-76
2022/05/09 04:20:29;;;;;;;15.07;9.77;;;;;;;13.17;62.50;99426.25;5051168;28;20036;-77
2022/05/09 04:22:56;;;;;;;16.35;9.63;;;;;;;13.24;62.12;99427.56;5049286;28;20182;-76
2022/05/09 04:25:22;;;;;;;14.13;10.02;;;;;;;13.31;62.10;99423.63;5050784;28;20198;-76
2022/05/09 04:27:49;;;;;;;13.15;10.73;;;;;;;13.34;62.10;99432.13;5051100;28;20025;-76
2022/05/09 04:30:15;;;;;;;15.70;10.73;;;;;;;13.40;62.03;99422.72;5050771;28;20389;-76
2022/05/09 04:32:41;;;;;;;15.00;10.88;;;;;;;13.45;62.26;99426.56;5050493;28;20025;-76
2022/05/09 04:35:14;;;;;;;16.75;10.93;;;;;;;13.52;62.37;99430.59;5051103;28;20389;-76
2022/05/09 04:37:44;;;;;;;15.88;10.38;;;;;;;13.59;62.01;99429.44;5055036;28;20053;-76
2022/05/09 04:40:11;;;;;;;12.75;9.75;;;;;;;13.65;61.97;99440.09;5055398;28;20033;-76
2022/05/09 04:42:36;;;;;;;12.55;9.30;;;;;;;13.72;61.88;99441.69;5054908;28;20079;-76
2022/05/09 04:45:02;;;;;;;14.15;10.82;;;;;;;13.81;61.82;99437.19;5054343;28;20025;-76
2022/05/09 04:47:27;;;;;;;16.50;10.35;;;;;;;13.90;61.86;99442.84;5054913;28;20033;-76
2022/05/09 04:49:53;;;;;;;13.75;9.48;;;;;;;13.97;61.56;99443.31;5054894;28;20028;-76
2022/05/09 04:52:18;;;;;;;12.93;9.20;;;;;;;14.02;61.77;99439.72;5055041;28;20448;-76
2022/05/09 04:54:43;;;;;;;11.45;8.38;;;;;;;14.08;61.72;99442.09;5054143;28;20083;-76
2022/05/09 04:57:09;;;;;;;11.57;8.73;;;;;;;14.16;61.50;99446.13;5054673;28;20044;-76
2022/05/09 04:59:34;;;;;;;13.10;8.25;;;;;;;14.20;61.17;99449.13;5054482;28;20480;-77
2022/05/09 05:02:00;;;;;;;14.10;8.77;;;;;;;14.26;61.36;99442.44;5053547;28;20381;-77
2022/05/09 05:04:25;;;;;;;14.07;9.18;;;;;;;14.29;61.13;99445.41;5054338;28;20473;-76
2022/05/09 05:06:51;;;;;;;17.95;11.35;;;;;;;14.33;60.90;99451.13;5054724;28;20358;-76
2022/05/09 05:09:16;;;;;;;17.70;10.68;;;;;;;14.36;60.79;99458.81;5054539;28;20542;-76
2022/05/09 05:11:42;;;;;;;17.95;10.50;;;;;;;14.40;60.91;99461.81;5054606;28;20033;-76
2022/05/09 05:14:07;;;;;;;15.73;9.40;;;;;;;14.43;61.00;99461.25;5054319;28;20028;-76
2022/05/09 05:19:16;;;;;;;11.23;8.57;;;;;;;14.48;60.67;99463.91;5054515;28;20409;-76
2022/05/09 05:21:42;;;;;;;15.40;8.77;;;;;;;14.53;60.78;99465.78;5054640;28;20037;-76
2022/05/09 05:24:08;;;;;;;13.40;8.80;;;;;;;14.59;60.74;99468.16;5054143;28;20061;-76
2022/05/09 05:26:34;;;;;;;12.32;8.57;;;;;;;14.63;60.55;99462.03;5054057;28;20036;-76
2022/05/09 05:28:59;;;;;;;13.68;8.75;;;;;;;14.62;60.25;99469.53;5053976;28;20033;-76
2022/05/09 05:31:24;;;;;;;15.65;9.02;;;;;;;14.62;60.29;99466.75;5053981;28;20029;-76
2022/05/09 05:33:50;;;;;;;13.30;8.63;;;;;;;14.60;59.95;99474.53;5052732;28;20108;-76
2022/05/09 05:36:16;;;;;;;11.32;8.13;;;;;;;14.55;60.01;99466.31;5054038;28;20482;-76
2022/05/09 05:38:43;;;;;;;15.52;8.50;;;;;;;14.52;59.82;99467.72;5052043;28;20029;-76
2022/05/09 05:41:09;;;;;;;13.23;8.68;;;;;;;14.51;59.72;99479.88;5053194;28;20075;-76
2022/05/09 05:43:34;;;;;;;13.82;9.10;;;;;;;14.52;60.00;99476.00;5052918;28;20025;-77
2022/05/09 05:45:59;;;;;;;14.27;8.88;;;;;;;14.63;60.25;99479.44;5052974;28;20488;-77
2022/05/09 05:48:25;;;;;;;14.35;8.02;;;;;;;14.78;60.27;99472.06;5053219;28;20029;-76
2022/05/09 05:50:52;;;;;;;10.13;7.15;;;;;;;14.91;60.01;99473.25;5053031;28;20021;-76
2022/05/09 05:53:18;;;;;;;13.27;7.93;;;;;;;15.01;59.86;99473.09;5052379;28;20103;-76
2022/05/09 05:55:44;;;;;;;11.02;7.60;;;;;;;15.16;60.00;99477.53;5052984;28;20121;-76
2022/05/09 05:58:10;;;;;;;12.55;7.50;;;;;;;15.30;59.85;99475.66;5034943;28;20125;-76
2022/05/09 06:00:36;;;;;;;11.02;7.40;;;;;;;15.41;59.20;99478.25;5052822;28;20033;-77
2022/05/09 06:03:01;;;;;;;12.95;7.65;;;;;;;15.47;58.89;99472.31;5051355;28;20021;-76
2022/05/09 06:05:27;;;;;;;11.90;7.72;;;;;;;15.56;59.37;99471.63;5052543;28;20112;-76
2022/05/09 06:07:55;;;;;;;13.45;7.88;;;;;;;15.65;58.87;99478.09;5052986;28;20031;-76
2022/05/09 06:10:21;;;;;;;10.50;7.20;;;;;;;15.70;58.85;99474.41;5052887;28;20078;-76
2022/05/09 06:12:47;;;;;;;9.57;6.90;;;;;;;15.76;58.67;99476.75;5052910;28;20524;-76
2022/05/09 06:15:28;;;;;;;9.90;7.13;;;;;;;15.84;58.66;99477.16;5051938;28;20037;-76
2022/05/09 06:17:57;;;;;;;12.05;7.47;;;;;;;15.86;58.47;99480.44;5052878;28;20056;-76
2022/05/09 06:20:24;;;;;;;10.63;7.07;;;;;;;15.88;58.13;99486.53;5053090;28;20039;-76
2022/05/09 06:22:52;;;;;;;13.98;7.53;;;;;;;15.82;57.96;99480.25;5052343;28;20032;-76
2022/05/09 06:25:18;;;;;;;12.82;7.45;;;;;;;15.76;58.21;99481.47;5051381;28;20031;-76
2022/05/09 06:27:44;;;;;;;10.32;7.10;;;;;;;15.74;57.92;99484.53;5051748;28;20013;-76
2022/05/09 06:30:12;;;;;;;12.43;7.20;;;;;;;15.75;57.91;99486.16;5051516;28;20071;-76
2022/05/09 06:32:38;;;;;;;11.70;7.15;;;;;;;15.82;58.17;99483.03;5050132;28;20500;-75
2022/05/09 06:35:06;;;;;;;13.23;7.20;;;;;;;15.93;58.14;99492.78;5050662;28;20029;-76
2022/05/09 06:37:37;;;;;;;11.13;7.15;;;;;;;16.00;57.86;99486.84;5050780;28;20382;-76
2022/05/09 06:40:04;;;;;;;11.13;6.93;;;;;;;16.01;57.83;99485.72;5050831;28;20025;-77
2022/05/09 06:42:29;;;;;;;11.40;7.18;;;;;;;15.98;57.64;99488.25;5050763;28;20087;-76
2022/05/09 06:44:55;;;;;;;9.73;5.95;;;;;;;15.92;57.54;99485.59;5048408;28;20465;-76
2022/05/09 06:47:20;;;;;;;9.68;5.80;;;;;;;15.87;57.54;99482.13;5055996;28;20040;-78
2022/05/09 06:49:46;;;;;;;9.10;6.60;;;;;;;15.85;57.01;99487.09;5048889;28;20084;-77
2022/05/09 06:52:11;;;;;;;10.35;6.40;;;;;;;15.83;57.16;99487.44;5051551;28;20191;-75
2022/05/09 06:54:37;;;;;;;10.48;6.32;;;;;;;15.83;57.35;99483.81;5050822;28;20043;-76
2022/05/09 06:57:04;;;;;;;9.57;7.25;;;;;;;15.85;57.01;99487.09;5050660;28;20358;-76
2022/05/09 06:59:34;;;;;;;9.48;6.15;;;;;;;15.86;57.11;99478.53;5048637;28;20056;-75
2022/05/09 07:02:00;;;;;;;9.75;5.80;;;;;;;15.92;57.20;99493.09;5049577;28;20370;-75
2022/05/09 07:04:25;;;;;;;11.55;5.93;;;;;;;15.98;56.91;99488.25;5049705;28;20023;-75
2022/05/09 07:06:51;;;;;;;10.32;5.80;;;;;;;16.02;56.89;99490.13;5051197;28;20048;-75
2022/05/09 07:09:16;;;;;;;9.98;5.82;;;;;;;16.11;56.96;99492.16;5051578;28;20056;-76
2022/05/09 07:11:42;;;;;;;9.05;6.07;;;;;;;16.16;56.69;99495.66;5052412;28;20037;-76
2022/05/09 07:14:08;;;;;;;11.13;6.35;;;;;;;16.22;56.71;99494.44;5050186;28;20058;-76
2022/05/09 07:16:34;;;;;;;8.32;5.05;;;;;;;16.30;56.63;99498.41;5051016;28;20073;-75
2022/05/09 07:19:00;;;;;;;7.05;5.03;;;;;;;16.40;56.82;99493.78;5050493;28;20083;-76
2022/05/09 07:21:27;;;;;;;8.27;4.85;;;;;;;16.48;56.12;99491.09;5049654;28;20021;-76
2022/05/09 07:23:53;;;;;;;8.63;4.50;;;;;;;16.55;55.95;99493.44;5053907;28;20029;-75
2022/05/09 07:26:19;;;;;;;6.75;4.32;;;;;;;16.63;55.74;99500.22;5050123;28;20040;-75
2022/05/09 07:28:44;;;;;;;6.65;4.07;;;;;;;16.71;55.44;99499.44;5049274;28;20025;-75
2022/05/09 07:31:10;;;;;;;5.60;3.88;;;;;;;16.78;55.14;99499.84;5048743;28;20074;-75
2022/05/09 07:33:36;;;;;;;7.65;4.13;;;;;;;16.86;54.67;99498.31;5048342;28;20068;-76
2022/05/09 07:36:03;;;;;;;6.18;3.75;;;;;;;16.91;55.03;99500.13;5048123;28;20127;-76
2022/05/09 07:38:28;;;;;;;5.55;3.30;;;;;;;17.00;54.03;99494.66;5048179;28;20159;-74
2022/05/09 07:40:54;;;;;;;5.75;3.17;;;;;;;17.06;53.94;99494.25;5047833;28;20111;-76
2022/05/09 07:43:23;;;;;;;4.40;3.15;;;;;;;17.15;54.08;99497.09;5048300;28;20055;-75
2022/05/09 07:45:51;;;;;;;5.50;3.25;;;;;;;17.25;54.00;99502.38;5045028;28;20055;-76
2022/05/09 07:48:19;;;;;;;5.45;3.40;;;;;;;17.34;53.17;99499.66;5046073;28;20032;-76
2022/05/09 07:50:45;;;;;;;6.90;2.90;;;;;;;17.40;52.49;99497.56;5049941;28;20524;-76
2022/05/09 07:53:20;;;;;;;5.13;3.35;;;;;;;17.49;52.53;99501.22;5046112;28;20047;-74
2022/05/09 07:55:46;;;;;;;5.28;3.53;;;;;;;17.55;50.81;99505.50;5051587;28;20025;-74
2022/05/09 07:58:12;;;;;;;4.97;2.90;;;;;;;17.61;51.97;99502.59;5049931;28;20058;-74
2022/05/09 08:00:39;;;;;;;5.82;3.15;;;;;;;17.72;51.66;99501.19;5051011;28;20033;-75
2022/05/09 08:03:05;;;;;;;7.30;3.40;;;;;;;17.76;50.72;99493.84;5050028;28;20028;-73
2022/05/09 08:05:32;;;;;;;7.85;3.30;;;;;;;17.83;50.77;99502.53;5048323;28;20029;-71
2022/05/09 08:07:57;;;;;;;5.50;2.90;;;;;;;17.91;49.83;99500.13;5046942;28;20415;-73
2022/05/09 08:10:23;;;;;;;10.73;3.00;;;;;;;17.89;49.52;99500.44;5047985;28;20119;-74
2022/05/09 08:12:49;;;;;;;5.13;2.30;;;;;;;17.90;48.62;99501.25;5048064;28;20470;-72
2022/05/09 08:15:16;;;;;;;7.07;2.10;;;;;;;17.98;48.81;99503.25;5050333;28;20025;-75
2022/05/09 08:17:44;;;;;;;5.03;2.45;;;;;;;18.07;47.83;99500.53;5048550;28;20017;-76
2022/05/09 08:20:10;;;;;;;4.95;2.35;;;;;;;18.19;48.02;99503.53;5049941;28;20133;-73
2022/05/09 08:22:36;;;;;;;3.70;2.50;;;;;;;18.33;48.18;99500.63;5049670;28;20648;-79
2022/05/09 08:25:02;;;;;;;4.05;2.60;;;;;;;18.52;48.11;99502.31;5049491;28;20035;-80
2022/05/09 08:27:28;;;;;;;10.90;2.50;;;;;;;18.64;47.63;99502.47;5048444;28;20025;-81
2022/05/09 08:29:56;;;;;;;5.75;2.40;;;;;;;18.75;47.46;99495.47;5049523;28;20043;-79
2022/05/09 08:32:25;;;;;;;5.50;2.80;;;;;;;18.96;47.15;99499.59;5043479;28;20485;-77
2022/05/09 08:34:54;;;;;;;4.53;2.47;;;;;;;19.19;46.60;99494.66;5047909;28;20029;-81
2022/05/09 08:37:20;;;;;;;7.22;2.88;;;;;;;19.41;45.89;99502.00;5048602;28;20497;-79
2022/05/09 08:39:46;;;;;;;5.00;2.90;;;;;;;19.48;45.17;99487.56;5047215;28;20115;-76
2022/05/09 08:42:18;;;;;;;6.10;2.75;;;;;;;19.54;44.65;99507.72;5048308;28;20025;-80
2022/05/09 08:44:51;;;;;;;4.90;3.10;;;;;;;19.58;44.71;99501.13;5047693;28;20037;-77
2022/05/09 08:47:55;;;;;;;7.72;3.72;;;;;;;19.72;44.99;99497.34;5048143;28;20033;-78
2022/05/09 08:50:41;;;;;;;7.47;3.60;;;;;;;19.84;43.67;99500.22;5006274;28;20500;-81
2022/05/09 08:53:10;;;;;;;6.43;3.35;;;;;;;19.90;44.24;99501.72;5005985;28;20042;-78
2022/05/09 08:55:42;;;;;;;10.65;4.60;;;;;;;19.91;43.97;99508.13;5054392;28;20060;-76
2022/05/09 08:58:37;;;;;;;8.52;3.63;;;;;;;19.89;43.24;99511.22;5048873;28;20032;-77
2022/05/09 09:01:09;;;;;;;5.60;3.08;;;;;;;19.79;42.19;99504.03;5047012;28;20040;-80
2022/05/09 09:03:39;;;;;;;7.75;4.00;;;;;;;19.64;42.34;99512.91;5049915;28;20487;-80
2022/05/09 09:06:22;;;;;;;6.75;3.70;;;;;;;19.55;42.56;99517.69;5048103;28;20139;-80
2022/05/09 09:09:16;;;;;;;14.05;3.17;;;;;;;19.52;42.68;99515.56;5049357;28;20025;-80
2022/05/09 09:11:57;;;;;;;6.07;3.17;;;;;;;19.58;42.58;99517.84;5047459;28;20108;-82
2022/05/09 09:15:14;;;;;;;7.65;3.88;;;;;;;19.67;42.78;99517.81;5046527;28;20112;-80
2022/05/09 09:18:17;;;;;;;7.45;3.45;;;;;;;19.80;43.18;99521.53;5008773;28;20164;-79
2022/05/09 09:20:58;;;;;;;6.15;3.10;;;;;;;19.95;42.27;99511.03;5047950;28;20052;-78
2022/05/09 09:23:50;;;;;;;5.50;2.78;;;;;;;19.93;41.04;99514.97;5051678;28;20417;-81
2022/05/09 09:26:28;;;;;;;10.35;3.92;;;;;;;19.98;41.75;99513.16;5053667;28;20064;-79
2022/05/09 09:29:07;;;;;;;7.97;2.90;;;;;;;20.12;42.17;99521.28;5052062;28;20082;-83
2022/05/09 09:31:42;;;;;;;8.67;3.47;;;;;;;20.17;41.88;99513.56;5050974;28;20078;-81
2022/05/09 09:34:16;;;;;;;8.00;3.30;;;;;;;20.14;41.20;99505.88;5055666;28;20031;-84
2022/05/09 09:36:51;;;;;;;6.18;2.60;;;;;;;20.17;41.09;99507.19;5053184;28;20055;-79
2022/05/09 09:39:22;;;;;;;2.60;2.10;;;;;;;20.18;41.36;99515.19;5051731;28;20112;-78
2022/05/09 09:41:50;;;;;;;5.63;2.75;;;;;;;20.22;40.68;99507.00;5052636;28;20021;-82
2022/05/09 09:44:15;;;;;;;5.03;2.63;;;;;;;20.21;40.79;99513.72;5050798;28;20091;-82
2022/05/09 09:47:08;;;;;;;8.38;2.53;;;;;;;20.26;40.94;99507.13;5052219;28;20040;-81
2022/05/09 09:49:40;;;;;;;5.70;3.17;;;;;;;20.38;40.56;99512.78;5048977;28;20547;-81
2022/05/09 09:52:23;;;;;;;7.20;3.45;;;;;;;20.38;40.98;99502.47;5051462;28;20025;-78
2022/05/09 09:55:00;;;;;;;5.55;2.78;;;;;;;20.45;40.82;99507.53;5051449;28;20036;-82
2022/05/09 09:57:36;;;;;;;5.25;2.70;;;;;;;20.40;39.80;99504.91;5052583;28;20029;-79
2022/05/09 10:00:24;;;;;;;4.82;2.65;;;;;;;20.32;38.23;99500.22;5051619;28;20045;-83
2022/05/09 10:02:52;;;;;;;4.43;2.70;;;;;;;20.11;37.83;99508.50;5050985;28;20033;-78
2022/05/09 10:05:39;;;;;;;5.22;2.60;;;;;;;19.93;37.83;99514.97;5050840;28;20505;-79
2022/05/09 10:08:19;;;;;;;5.75;3.00;;;;;;;19.88;39.03;99508.75;5049584;28;20071;-80
2022/05/09 10:11:19;;;;;;;10.45;2.60;;;;;;;19.86;39.44;99502.69;5051753;28;20033;-76
2022/05/09 10:13:53;;;;;;;3.58;2.60;;;;;;;19.98;39.82;99505.59;5042411;28;20107;-82
2022/05/09 10:16:41;;;;;;;5.38;2.67;;;;;;;20.16;40.64;99498.03;5052030;28;20036;-80
2022/05/09 10:19:11;;;;;;;5.00;2.42;;;;;;;20.36;40.10;99493.66;5048684;28;20108;-81
2022/05/09 10:24:51;;;;;;;6.40;2.50;;;;;;;20.78;38.85;99501.25;5049306;28;20044;-78
2022/05/09 10:27:26;;;;;;;6.22;2.60;;;;;;;20.89;38.85;99492.50;5049626;28;20089;-78
2022/05/09 10:30:04;;;;;;;5.30;2.70;;;;;;;20.93;38.22;99491.44;5049279;28;20113;-77
2022/05/09 10:32:52;;;;;;;6.90;2.80;;;;;;;20.93;38.28;99496.22;5048734;28;20345;-79
2022/05/09 10:35:28;;;;;;;7.15;2.70;;;;;;;20.81;38.16;99494.16;5048804;28;20032;-78
2022/05/09 10:37:59;;;;;;;7.50;3.25;;;;;;;20.80;38.12;99490.56;5050143;28;20043;-78
2022/05/09 10:40:30;;;;;;;6.50;2.60;;;;;;;20.88;38.88;99488.06;5049538;28;20056;-79
2022/05/09 10:43:05;;;;;;;6.35;3.10;;;;;;;21.02;39.06;99485.78;5051128;28;20052;-77
2022/05/09 10:45:36;;;;;;;6.82;2.80;;;;;;;21.19;38.45;99486.81;5047272;28;20048;-80
2022/05/09 10:48:15;;;;;;;4.97;2.42;;;;;;;21.31;38.13;99480.44;5052430;28;20060;-80
2022/05/09 10:51:03;;;;;;;4.70;2.30;;;;;;;21.47;38.71;99481.44;5044661;28;20065;-79
2022/05/09 10:53:29;;;;;;;4.43;2.10;;;;;;;21.66;37.51;99483.72;5049905;28;20017;-83
2022/05/09 10:56:14;;;;;;;5.55;2.05;;;;;;;21.71;37.16;99474.28;5050466;28;20051;-77
2022/05/09 10:59:02;;;;;;;4.18;2.33;;;;;;;21.73;35.34;99469.19;5047009;28;20056;-73
2022/05/09 11:01:46;;;;;;;5.32;2.35;;;;;;;21.82;37.17;99469.06;5050126;28;20083;-76
2022/05/09 11:04:14;;;;;;;5.72;2.83;;;;;;;21.94;37.24;99462.69;5047530;28;20033;-75
2022/05/09 11:06:52;;;;;;;4.47;2.58;;;;;;;22.01;36.86;99460.94;5046797;28;20029;-79
2022/05/09 11:09:35;;;;;;;3.80;2.60;;;;;;;21.83;35.17;99468.75;5048582;28;20114;-79
2022/05/09 11:12:36;;;;;;;7.72;2.60;;;;;;;21.52;36.06;99466.44;5048779;28;20028;-78
2022/05/09 11:15:07;;;;;;;7.20;3.10;;;;;;;21.25;35.98;99469.50;5050136;28;20029;-76
2022/05/09 11:17:41;;;;;;;7.10;3.10;;;;;;;21.05;35.93;99464.78;5048685;28;20056;-77
2022/05/09 11:20:31;;;;;;;7.05;2.72;;;;;;;21.04;36.43;99466.75;5050753;28;20167;-77
2022/05/09 11:23:09;;;;;;;4.70;2.70;;;;;;;21.12;37.36;99453.91;5050209;28;20466;-77
2022/05/09 11:25:49;;;;;;;4.70;2.50;;;;;;;21.28;37.32;99451.28;5050379;28;20025;-76
2022/05/09 11:28:32;;;;;;;6.00;2.50;;;;;;;21.35;36.68;99448.75;5050667;28;20037;-75
2022/05/09 11:31:13;;;;;;;6.47;2.55;;;;;;;21.40;36.75;99451.28;5050944;28;20037;-76
2022/05/09 11:34:21;;;;;;;6.35;2.70;;;;;;;21.47;36.70;99452.69;5050476;28;20043;-77
2022/05/09 11:37:02;;;;;;;7.63;2.90;;;;;;;21.34;35.77;99447.13;5050111;28;20111;-78
2022/05/09 11:40:06;;;;;;;5.15;2.40;;;;;;;21.17;33.28;99445.31;5050761;28;20511;-77
2022/05/09 11:43:33;;;;;;;7.43;2.80;;;;;;;21.15;34.50;99438.44;5050283;28;20033;-78
2022/05/09 11:46:17;;;;;;;5.60;2.20;;;;;;;21.38;33.84;99430.47;5049831;28;20076;-79
2022/05/09 11:48:52;;;;;;;6.05;2.40;;;;;;;21.48;32.78;99435.63;5050077;28;20045;-78
2022/05/09 11:51:37;;;;;;;5.60;2.38;;;;;;;21.54;32.92;99441.78;5049158;28;20075;-79
2022/05/09 11:54:14;;;;;;;6.95;2.35;;;;;;;21.57;32.89;99427.16;5050006;28;20025;-80
2022/05/09 11:56:45;;;;;;;5.68;2.60;;;;;;;21.55;31.69;99426.69;5050510;28;20116;-79